Time;durP1;ratioP1;P1;durP2;ratioP2;P2;SDS_P1;SDS_P2;PMS_P1;PMS_P2;Temp;Humidity;BMP_temperature;BMP_pressure;BME280_temperature;BME280_humidity;BME280_pressure;Samples;Min_cycle;Max_cycle;Signal;HPM_P1;HPM_P2
2022/01/19 00:01:43;;;;;;;12.30;9.90;;;1.90;99.90;;;;;;5068312;28;20560;-58
2022/01/19 00:04:10;;;;;;;12.23;9.23;;;1.90;99.90;;;;;;5068716;28;20511;-59
2022/01/19 00:06:38;;;;;;;13.27;8.70;;;1.80;99.90;;;;;;5068856;28;20460;-60
2022/01/19 00:09:19;;;;;;;10.50;9.40;;;1.80;99.90;;;;;;5068951;28;20457;-60
2022/01/19 00:11:46;;;;;;;12.50;8.77;;;1.70;99.90;;;;;;5068385;28;20451;-60
2022/01/19 00:14:13;;;;;;;13.07;9.67;;;1.60;99.90;;;;;;5067482;28;20857;-58
2022/01/19 00:16:43;;;;;;;11.33;8.80;;;1.50;99.90;;;;;;5069851;28;20807;-60
2022/01/19 00:19:10;;;;;;;13.00;9.80;;;1.50;99.90;;;;;;5069718;28;20473;-60
2022/01/19 00:21:38;;;;;;;12.33;9.33;;;1.50;99.90;;;;;;5067975;28;20873;-60
2022/01/19 00:24:09;;;;;;;11.10;9.37;;;1.50;99.90;;;;;;5074067;28;20882;-60
2022/01/19 00:26:36;;;;;;;14.53;8.73;;;1.40;99.90;;;;;;5059389;28;20727;-60
2022/01/19 00:29:03;;;;;;;14.00;8.63;;;1.40;99.90;;;;;;5059466;28;20467;-60
2022/01/19 00:31:31;;;;;;;10.13;7.90;;;1.40;99.90;;;;;;5059536;28;20493;-59
2022/01/19 00:33:58;;;;;;;10.27;7.60;;;1.40;99.90;;;;;;5053573;28;20467;-57
2022/01/19 00:36:30;;;;;;;10.43;7.57;;;1.40;99.90;;;;;;5052134;28;20535;-60
2022/01/19 00:39:00;;;;;;;7.70;6.87;;;1.30;99.90;;;;;;5058552;28;20545;-60
2022/01/19 00:41:29;;;;;;;9.67;7.20;;;1.20;99.90;;;;;;5059530;28;20454;-60
2022/01/19 00:44:20;;;;;;;9.03;7.67;;;1.20;99.90;;;;;;5056689;28;20467;-60
2022/01/19 00:46:53;;;;;;;10.77;7.57;;;1.20;99.90;;;;;;5047011;28;20528;-60
2022/01/19 00:49:29;;;;;;;9.87;7.13;;;1.10;99.90;;;;;;5048332;28;20474;-60
2022/01/19 00:52:01;;;;;;;8.10;7.30;;;1.00;99.90;;;;;;5057666;28;20446;-59
2022/01/19 00:54:31;;;;;;;8.60;6.23;;;1.00;99.90;;;;;;5059311;28;20548;-60
2022/01/19 01:11:06;;;;;;;9.47;7.70;;;0.80;99.90;;;;;;5047313;28;20477;-60
2022/01/19 01:16:29;;;;;;;11.87;9.37;;;0.70;99.90;;;;;;5045193;28;20447;-59
2022/01/19 01:18:56;;;;;;;14.30;9.43;;;0.60;99.90;;;;;;5037735;28;20469;-59
2022/01/19 01:21:23;;;;;;;16.87;9.93;;;0.60;99.90;;;;;;5038327;28;20498;-59
2022/01/19 01:23:51;;;;;;;12.80;9.47;;;0.60;99.90;;;;;;5039829;28;20528;-60
2022/01/19 01:26:18;;;;;;;13.67;10.07;;;0.60;99.90;;;;;;5038957;28;20462;-60
2022/01/19 01:28:46;;;;;;;12.73;9.80;;;0.60;99.90;;;;;;5039180;28;20747;-60
2022/01/19 01:31:13;;;;;;;14.77;10.10;;;0.60;99.90;;;;;;5042824;28;20498;-60
2022/01/19 01:33:45;;;;;;;14.40;11.10;;;0.60;99.90;;;;;;5040591;28;20446;-57
2022/01/19 01:36:12;;;;;;;14.03;10.83;;;0.60;99.90;;;;;;5050080;28;20756;-60
2022/01/19 01:38:40;;;;;;;16.27;11.00;;;0.70;99.90;;;;;;5052839;28;20460;-60
2022/01/19 01:41:08;;;;;;;16.97;12.13;;;0.80;99.90;;;;;;5039269;28;20463;-60
2022/01/19 01:43:35;;;;;;;19.17;13.60;;;1.10;99.90;;;;;;5040425;28;20467;-58
2022/01/19 01:46:09;;;;;;;13.60;10.43;;;1.10;99.90;;;;;;5057309;28;20904;-59
2022/01/19 01:48:43;;;;;;;15.10;11.10;;;1.00;99.90;;;;;;5060504;28;20535;-60
2022/01/19 01:53:55;;;;;;;16.63;10.57;;;0.90;99.90;;;;;;5039712;28;20446;-59
2022/01/19 01:56:22;;;;;;;14.37;11.10;;;0.90;99.90;;;;;;5039332;28;20441;-58
2022/01/19 01:58:51;;;;;;;13.97;10.20;;;0.90;99.90;;;;;;5039672;28;20821;-59
2022/01/19 02:01:19;;;;;;;13.33;10.60;;;0.80;99.90;;;;;;5040059;28;20459;-60
2022/01/19 02:03:47;;;;;;;12.03;10.23;;;0.70;99.90;;;;;;5039658;28;20469;-58
2022/01/19 02:06:32;;;;;;;15.00;10.90;;;0.70;99.90;;;;;;5056207;28;20465;-59
2022/01/19 02:09:06;;;;;;;15.83;11.87;;;0.80;99.90;;;;;;5058367;28;20447;-59
2022/01/19 02:23:14;;;;;;;14.60;10.57;;;1.20;99.90;;;;;;5057646;28;20543;-60
2022/01/19 02:25:43;;;;;;;14.87;10.33;;;1.50;99.90;;;;;;5058498;28;20469;-58
2022/01/19 02:36:38;;;;;;;10.20;9.20;;;2.20;99.90;;;;;;5051383;28;20798;-60
2022/01/19 02:41:51;;;;;;;15.43;10.80;;;2.30;99.90;;;;;;5057293;28;20456;-60
2022/01/19 02:44:34;;;;;;;10.77;9.23;;;2.40;99.90;;;;;;5057155;28;20462;-60
2022/01/19 02:49:42;;;;;;;10.80;8.60;;;2.60;99.90;;;;;;5034362;28;20434;-61
2022/01/19 02:52:11;;;;;;;10.10;9.17;;;2.60;99.90;;;;;;5057383;28;20497;-61
2022/01/19 02:54:38;;;;;;;11.70;9.70;;;2.70;99.90;;;;;;5057081;28;20485;-61
2022/01/19 02:57:08;;;;;;;9.90;8.53;;;2.70;99.90;;;;;;5056467;28;20462;-61
2022/01/19 02:59:46;;;;;;;14.23;9.23;;;2.80;99.90;;;;;;5057103;28;20505;-62
2022/01/19 03:10:29;;;;;;;9.23;8.17;;;2.90;99.90;;;;;;5056361;28;20485;-62
2022/01/19 03:12:56;;;;;;;11.23;9.23;;;2.80;99.90;;;;;;5053175;28;20494;-62
2022/01/19 03:15:23;;;;;;;10.63;9.63;;;2.90;99.90;;;;;;5053417;28;20478;-62
2022/01/19 03:17:50;;;;;;;9.20;8.40;;;2.90;99.90;;;;;;5053456;28;20458;-62
2022/01/19 03:20:17;;;;;;;10.77;9.77;;;2.90;99.90;;;;;;5055456;28;20525;-62
2022/01/19 03:22:54;;;;;;;10.93;9.83;;;3.00;99.90;;;;;;5057923;28;20500;-62
2022/01/19 03:25:22;;;;;;;11.97;9.47;;;3.00;99.90;;;;;;5061120;28;20538;-62
2022/01/19 03:27:49;;;;;;;10.90;9.90;;;3.00;99.90;;;;;;5060925;28;20437;-63
2022/01/19 03:30:17;;;;;;;12.90;11.20;;;3.00;99.90;;;;;;5061186;28;20493;-63
2022/01/19 03:32:44;;;;;;;12.00;10.90;;;3.10;99.90;;;;;;5060476;28;20462;-63
2022/01/19 03:35:18;;;;;;;11.27;10.10;;;3.10;99.90;;;;;;5059793;28;20471;-63
2022/01/19 03:37:47;;;;;;;12.70;11.40;;;3.10;99.90;;;;;;5039357;28;20470;-63
2022/01/19 03:40:14;;;;;;;12.63;11.33;;;3.20;99.90;;;;;;5050092;28;20436;-63
2022/01/19 03:42:41;;;;;;;13.83;12.43;;;3.10;99.90;;;;;;5057409;28;20466;-63
2022/01/19 03:45:10;;;;;;;14.40;13.00;;;3.20;99.90;;;;;;5056405;28;20466;-63
2022/01/19 03:47:42;;;;;;;12.60;11.50;;;3.20;99.90;;;;;;5057816;28;20490;-63
2022/01/19 03:50:13;;;;;;;11.97;10.67;;;3.20;99.90;;;;;;5060792;28;20489;-63
2022/01/19 03:52:40;;;;;;;11.50;10.30;;;3.20;99.90;;;;;;5040501;28;20459;-63
2022/01/19 03:55:11;;;;;;;11.67;10.57;;;3.20;99.90;;;;;;5056398;28;20448;-63
2022/01/19 03:57:38;;;;;;;12.50;11.37;;;3.20;99.90;;;;;;5056782;28;20444;-63
2022/01/19 04:00:08;;;;;;;10.63;9.63;;;3.20;99.90;;;;;;5052247;28;20835;-63
2022/01/19 04:02:36;;;;;;;10.17;9.20;;;3.20;99.90;;;;;;5054361;28;20926;-63
2022/01/19 04:05:07;;;;;;;9.07;8.20;;;3.20;99.90;;;;;;5059323;28;20508;-63
2022/01/19 04:07:37;;;;;;;11.60;10.37;;;3.20;99.90;;;;;;5053401;28;20855;-63
2022/01/19 04:10:07;;;;;;;11.83;10.53;;;3.20;99.90;;;;;;5060120;28;20802;-63
2022/01/19 04:12:46;;;;;;;11.97;10.83;;;3.30;99.90;;;;;;5058152;28;20536;-63
2022/01/19 04:15:15;;;;;;;11.00;9.87;;;3.30;99.90;;;;;;5059111;28;20466;-63
2022/01/19 04:17:48;;;;;;;11.23;10.23;;;3.30;99.90;;;;;;5057730;28;20462;-63
2022/01/19 04:20:16;;;;;;;11.23;10.10;;;3.30;99.90;;;;;;5058436;28;20575;-63
2022/01/19 04:22:43;;;;;;;11.67;10.60;;;3.30;99.90;;;;;;5058665;28;20552;-63
2022/01/19 04:25:12;;;;;;;11.17;9.60;;;3.30;99.90;;;;;;5059211;28;20498;-63
2022/01/19 04:27:43;;;;;;;12.30;11.20;;;3.30;99.90;;;;;;5058683;28;20525;-63
2022/01/19 04:30:13;;;;;;;11.63;10.53;;;3.30;99.90;;;;;;5059904;28;20743;-63
2022/01/19 04:32:48;;;;;;;10.60;9.70;;;3.30;99.90;;;;;;5058978;28;20498;-63
2022/01/19 04:35:22;;;;;;;11.00;10.07;;;3.30;99.90;;;;;;5059959;28;20469;-63
2022/01/19 04:38:29;;;;;;;12.60;10.97;;;3.30;99.90;;;;;;5059385;28;20810;-63
2022/01/19 04:44:13;;;;;;;10.63;9.73;;;3.30;99.90;;;;;;5059407;28;20438;-63
2022/01/19 05:03:30;;;;;;;10.30;9.40;;;3.40;99.90;;;;;;5068013;28;20437;-63
2022/01/19 05:06:04;;;;;;;8.10;7.47;;;3.30;99.90;;;;;;5066094;28;20453;-63
2022/01/19 05:08:51;;;;;;;10.23;9.23;;;3.30;99.90;;;;;;5058587;28;20875;-63
2022/01/19 05:14:03;;;;;;;10.30;9.40;;;3.30;99.90;;;;;;5057948;28;20524;-62
2022/01/19 05:16:32;;;;;;;11.77;10.70;;;3.30;99.90;;;;;;5065975;28;20882;-63
2022/01/19 05:19:02;;;;;;;12.23;11.07;;;3.30;99.90;;;;;;5078168;28;20461;-63
2022/01/19 05:21:29;;;;;;;11.43;10.43;;;3.30;99.90;;;;;;5059375;28;20493;-63
2022/01/19 05:23:56;;;;;;;11.37;10.27;;;3.40;99.90;;;;;;5058297;28;20490;-63
2022/01/19 05:26:23;;;;;;;10.77;9.97;;;3.40;99.90;;;;;;5058962;28;20887;-63
2022/01/19 05:28:49;;;;;;;9.80;8.90;;;3.40;99.90;;;;;;5058612;28;20486;-63
2022/01/19 05:31:17;;;;;;;9.67;8.80;;;3.30;99.90;;;;;;5058194;28;20892;-62
2022/01/19 05:33:45;;;;;;;9.10;8.30;;;3.40;96.40;;;;;;5058488;28;20516;-63
2022/01/19 05:36:12;;;;;;;10.13;9.13;;;3.30;10.20;;;;;;5057664;28;21192;-62
2022/01/19 05:38:39;;;;;;;9.97;9.03;;;3.30;1.00;;;;;;5058222;28;20471;-63
2022/01/19 05:41:06;;;;;;;9.80;9.00;;;3.30;1.00;;;;;;5058291;28;20455;-63
2022/01/19 05:43:33;;;;;;;8.93;8.13;;;3.30;1.00;;;;;;5056940;28;20802;-63
2022/01/19 05:46:00;;;;;;;9.73;8.83;;;3.30;1.00;;;;;;5058734;28;20524;-62
2022/01/19 05:48:30;;;;;;;10.07;9.17;;;3.20;99.90;;;;;;5057900;28;20462;-62
2022/01/19 05:50:59;;;;;;;10.50;9.50;;;3.30;99.90;;;;;;5058067;28;21831;-62
2022/01/19 05:53:26;;;;;;;9.50;8.50;;;3.30;99.90;;;;;;5058487;28;20437;-63
2022/01/19 05:55:53;;;;;;;10.23;9.33;;;3.30;1.00;;;;;;5058915;28;20441;-62
2022/01/19 05:58:20;;;;;;;8.20;7.50;;;3.30;99.90;;;;;;5058787;28;20767;-62
2022/01/19 06:00:47;;;;;;;10.57;8.57;;;3.30;1.00;;;;;;5058573;28;20461;-62
2022/01/19 06:03:15;;;;;;;9.33;8.43;;;3.30;99.90;;;;;;5057779;28;20541;-63
2022/01/19 06:05:45;;;;;;;9.40;8.50;;;3.30;1.00;;;;;;5057604;28;20502;-62
2022/01/19 06:08:28;;;;;;;9.07;8.27;;;3.30;1.00;;;;;;5058694;28;20466;-62
2022/01/19 06:10:55;;;;;;;8.93;8.10;;;3.30;99.90;;;;;;5058055;28;20519;-62
2022/01/19 06:13:24;;;;;;;7.23;6.63;;;3.20;1.00;;;;;;5057494;28;20895;-62
2022/01/19 06:15:54;;;;;;;8.00;7.30;;;3.20;99.90;;;;;;5057834;28;20769;-62
2022/01/19 06:18:21;;;;;;;9.13;8.33;;;3.20;99.90;;;;;;5057961;28;20550;-62
2022/01/19 06:20:48;;;;;;;10.13;8.80;;;3.30;99.90;;;;;;5057575;28;20500;-62
2022/01/19 06:23:19;;;;;;;11.00;10.00;;;3.30;1.00;;;;;;5057664;28;20482;-62
2022/01/19 06:25:45;;;;;;;9.30;8.50;;;3.30;1.00;;;;;;5057484;28;20504;-62
2022/01/19 06:28:13;;;;;;;10.30;9.20;;;3.30;99.90;;;;;;5057423;28;20735;-62
2022/01/19 06:30:40;;;;;;;11.80;10.67;;;3.30;99.90;;;;;;5057822;28;20441;-62
2022/01/19 06:33:07;;;;;;;9.67;8.70;;;3.30;1.00;;;;;;5056573;28;20485;-62
2022/01/19 06:35:34;;;;;;;15.37;12.60;;;3.40;1.00;;;;;;5058110;28;20494;-62
2022/01/19 06:38:04;;;;;;;11.27;10.10;;;3.30;1.00;;;;;;5069077;28;20479;-62
2022/01/19 06:40:32;;;;;;;12.10;10.87;;;3.30;1.00;;;;;;5062147;28;20562;-62
2022/01/19 06:42:59;;;;;;;11.40;10.30;;;3.40;1.00;;;;;;5057206;28;20468;-62
2022/01/19 06:45:26;;;;;;;10.43;7.40;;;3.40;1.00;;;;;;5057212;28;20792;-62
2022/01/19 06:47:53;;;;;;;8.40;7.50;;;3.40;99.90;;;;;;5056728;28;20465;-62
2022/01/19 06:50:21;;;;;;;9.30;8.40;;;3.30;99.90;;;;;;5056038;28;20495;-62
2022/01/19 06:52:48;;;;;;;8.60;7.70;;;3.30;98.80;;;;;;5056517;28;20857;-60
2022/01/19 06:55:16;;;;;;;8.73;7.93;;;3.40;99.90;;;;;;5057380;28;20493;-58
2022/01/19 06:57:45;;;;;;;7.73;7.03;;;3.40;1.00;;;;;;5060546;28;20429;-60
2022/01/19 07:00:14;;;;;;;7.20;6.40;;;3.40;1.00;;;;;;5060825;28;20489;-60
2022/01/19 07:02:43;;;;;;;8.97;7.53;;;3.30;1.00;;;;;;5060469;28;20450;-59
2022/01/19 07:05:10;;;;;;;9.23;8.10;;;3.40;1.00;;;;;;5059681;28;20447;-60
2022/01/19 07:07:37;;;;;;;8.77;7.57;;;3.30;1.00;;;;;;5060517;28;20461;-59
2022/01/19 07:10:05;;;;;;;8.57;7.77;;;3.40;1.00;;;;;;5060159;28;20460;-60
2022/01/19 07:12:33;;;;;;;9.47;7.37;;;3.40;1.00;;;;;;5059971;28;20808;-59
2022/01/19 07:15:01;;;;;;;7.57;6.87;;;3.40;1.00;;;;;;5059568;28;20458;-60
2022/01/19 07:17:28;;;;;;;7.50;6.80;;;3.50;1.00;;;;;;5060102;28;20454;-60
2022/01/19 07:19:57;;;;;;;7.90;7.20;;;3.40;1.00;;;;;;5059383;28;20482;-59
2022/01/19 07:22:24;;;;;;;8.03;7.33;;;3.50;1.00;;;;;;5059762;28;20454;-59
2022/01/19 07:24:51;;;;;;;8.00;7.20;;;3.50;1.00;;;;;;5059539;28;20883;-60
2022/01/19 07:27:18;;;;;;;8.27;7.40;;;3.50;1.00;;;;;;5059170;28;20466;-60
2022/01/19 07:29:45;;;;;;;10.40;7.50;;;3.50;99.90;;;;;;5059923;28;20556;-59
2022/01/19 07:32:14;;;;;;;8.60;7.37;;;3.50;99.90;;;;;;5059425;28;20520;-60
2022/01/19 07:34:44;;;;;;;9.87;8.87;;;3.50;99.90;;;;;;5059433;28;20502;-60
2022/01/19 07:37:11;;;;;;;8.23;7.53;;;3.50;99.90;;;;;;5058154;28;20801;-58
2022/01/19 07:39:41;;;;;;;8.80;7.93;;;3.60;99.90;;;;;;5059239;28;20433;-60
2022/01/19 07:42:08;;;;;;;11.90;9.60;;;3.60;99.90;;;;;;5059727;28;20429;-60
2022/01/19 07:44:35;;;;;;;8.33;7.40;;;3.60;99.90;;;;;;5056609;28;20494;-60
2022/01/19 07:47:05;;;;;;;9.40;8.37;;;3.60;99.90;;;;;;5058849;28;20926;-60
2022/01/19 07:49:33;;;;;;;8.63;7.83;;;3.60;99.90;;;;;;5059408;28;20752;-60
2022/01/19 07:52:00;;;;;;;8.23;6.80;;;3.60;99.90;;;;;;5059354;28;20457;-60
2022/01/19 07:54:27;;;;;;;9.10;8.20;;;3.60;99.90;;;;;;5059146;28;20475;-60
2022/01/19 07:56:54;;;;;;;8.63;7.93;;;3.60;99.90;;;;;;5058853;28;20785;-60
2022/01/19 07:59:21;;;;;;;9.50;8.50;;;3.60;99.90;;;;;;5060053;28;20814;-60
2022/01/19 08:01:48;;;;;;;8.80;8.00;;;3.60;99.90;;;;;;5059322;28;20459;-60
2022/01/19 08:04:15;;;;;;;10.17;9.27;;;3.60;99.90;;;;;;5059247;28;20515;-58
2022/01/19 08:06:44;;;;;;;8.37;7.53;;;3.60;99.90;;;;;;5058727;28;20485;-60
2022/01/19 08:09:11;;;;;;;9.30;8.40;;;3.60;99.90;;;;;;5063022;28;20953;-59
2022/01/19 08:11:38;;;;;;;11.80;9.57;;;3.50;99.90;;;;;;5068426;28;20474;-61
2022/01/19 08:14:05;;;;;;;10.93;9.73;;;3.60;1.00;;;;;;5065712;28;20451;-60
2022/01/19 08:16:33;;;;;;;9.30;8.50;;;3.60;1.00;;;;;;5068201;28;20432;-60
2022/01/19 08:19:00;;;;;;;10.30;9.30;;;3.60;1.00;;;;;;5066617;28;20461;-59
2022/01/19 08:21:27;;;;;;;12.30;9.27;;;3.60;1.00;;;;;;5069838;28;20453;-60
2022/01/19 08:23:56;;;;;;;10.30;8.93;;;3.60;1.00;;;;;;5068605;28;20446;-58
2022/01/19 08:26:23;;;;;;;10.67;9.40;;;3.50;99.90;;;;;;5067475;28;20850;-60
2022/01/19 08:28:50;;;;;;;12.10;9.40;;;3.60;1.00;;;;;;5068933;28;20463;-60
2022/01/19 08:31:18;;;;;;;11.33;10.10;;;3.60;1.00;;;;;;5067068;28;20530;-59
2022/01/19 08:33:54;;;;;;;8.67;7.87;;;3.60;1.00;;;;;;5065125;28;20503;-60
2022/01/19 08:36:21;;;;;;;11.33;9.53;;;3.60;99.90;;;;;;5066454;28;20510;-60
2022/01/19 08:38:49;;;;;;;10.10;9.10;;;3.70;99.90;;;;;;5069022;28;20461;-60
2022/01/19 08:41:18;;;;;;;11.50;10.50;;;3.70;99.90;;;;;;5063443;28;20899;-59
2022/01/19 08:43:48;;;;;;;11.47;9.50;;;3.80;99.90;;;;;;5057140;28;20467;-58
2022/01/19 08:46:15;;;;;;;11.70;10.57;;;3.70;99.90;;;;;;5056969;28;20874;-58
2022/01/19 08:48:45;;;;;;;11.43;10.40;;;3.70;99.90;;;;;;5057430;28;20731;-58
2022/01/19 08:51:11;;;;;;;11.50;10.00;;;3.70;99.90;;;;;;5057580;28;20469;-58
2022/01/19 08:53:40;;;;;;;10.77;9.67;;;3.70;99.90;;;;;;5058865;28;20973;-58
2022/01/19 08:56:07;;;;;;;10.97;9.67;;;3.70;99.90;;;;;;5058331;28;20891;-59
2022/01/19 08:58:36;;;;;;;14.23;11.37;;;3.70;99.90;;;;;;5058023;28;20498;-60
2022/01/19 09:01:06;;;;;;;16.53;13.53;;;3.70;99.90;;;;;;5057996;28;20748;-58
2022/01/19 09:03:34;;;;;;;19.70;15.13;;;3.70;99.90;;;;;;5059052;28;20825;-60
2022/01/19 09:06:01;;;;;;;15.00;13.50;;;3.70;99.90;;;;;;5058375;28;20436;-59
2022/01/19 09:08:30;;;;;;;20.47;15.10;;;3.70;99.90;;;;;;5058359;28;20977;-60
2022/01/19 09:11:01;;;;;;;12.10;10.90;;;3.70;99.90;;;;;;5058490;28;20917;-60
2022/01/19 09:13:28;;;;;;;12.70;11.00;;;3.70;99.90;;;;;;5058046;28;20493;-58
2022/01/19 09:15:56;;;;;;;15.77;12.40;;;3.70;99.90;;;;;;5058088;28;20486;-59
2022/01/19 09:18:23;;;;;;;13.50;11.50;;;3.60;99.90;;;;;;5058358;28;20516;-59
2022/01/19 09:20:52;;;;;;;15.17;12.20;;;3.60;99.90;;;;;;5058014;28;20513;-58
2022/01/19 09:23:19;;;;;;;14.93;12.50;;;3.60;99.90;;;;;;5056853;28;20456;-59
2022/01/19 09:25:46;;;;;;;15.77;13.27;;;3.60;99.90;;;;;;5058382;28;20774;-59
2022/01/19 09:28:16;;;;;;;14.33;12.63;;;3.60;99.90;;;;;;5057938;28;20462;-59
2022/01/19 09:30:45;;;;;;;16.80;14.37;;;3.70;99.90;;;;;;5057823;28;20475;-57
2022/01/19 09:33:20;;;;;;;16.43;13.90;;;3.60;99.90;;;;;;5057324;28;20491;-60
2022/01/19 09:35:54;;;;;;;15.73;13.27;;;3.70;99.90;;;;;;5058140;28;20461;-59
2022/01/19 09:38:24;;;;;;;17.30;14.50;;;3.60;99.90;;;;;;5057506;28;20476;-59
2022/01/19 09:40:59;;;;;;;20.23;16.60;;;3.60;99.90;;;;;;5057846;28;20523;-59
2022/01/19 09:43:37;;;;;;;19.43;16.63;;;3.60;99.90;;;;;;5057369;28;20433;-55
2022/01/19 09:46:04;;;;;;;19.60;14.90;;;3.70;99.90;;;;;;5057819;28;20523;-56
2022/01/19 09:48:34;;;;;;;17.53;15.63;;;3.70;99.90;;;;;;5057164;28;20462;-55
2022/01/19 09:51:06;;;;;;;19.27;16.80;;;3.80;99.90;;;;;;5056811;28;20524;-57
2022/01/19 09:53:36;;;;;;;22.40;17.00;;;3.90;99.90;;;;;;5058074;28;20508;-56
2022/01/19 09:56:04;;;;;;;22.90;18.40;;;3.80;99.90;;;;;;5056679;28;20915;-57
2022/01/19 09:58:31;;;;;;;20.10;16.00;;;3.90;99.90;;;;;;5056957;28;20765;-59
2022/01/19 10:01:01;;;;;;;20.60;17.23;;;3.80;99.90;;;;;;5056752;28;20485;-59
2022/01/19 10:03:29;;;;;;;20.60;15.93;;;3.80;99.90;;;;;;5056675;28;20454;-59
2022/01/19 10:06:05;;;;;;;20.77;17.17;;;3.70;99.90;;;;;;5054495;28;20508;-58
2022/01/19 10:08:35;;;;;;;18.93;15.73;;;3.60;99.90;;;;;;5051932;28;20461;-59
2022/01/19 10:11:21;;;;;;;17.20;14.63;;;3.60;99.90;;;;;;5054397;28;20462;-59
2022/01/19 10:17:01;;;;;;;19.87;16.10;;;3.60;99.90;;;;;;5053284;28;20445;-58
2022/01/19 10:19:29;;;;;;;18.07;15.60;;;3.60;99.90;;;;;;5055719;28;20490;-58
2022/01/19 10:22:14;;;;;;;21.60;16.83;;;3.60;99.90;;;;;;5055604;28;20458;-59
2022/01/19 10:24:54;;;;;;;19.33;15.13;;;3.60;99.90;;;;;;5054634;28;20527;-56
2022/01/19 10:27:37;;;;;;;18.93;15.63;;;3.70;99.90;;;;;;5054702;28;20461;-59
2022/01/19 10:30:25;;;;;;;20.93;16.57;;;3.70;99.90;;;;;;5055076;28;20502;-57
2022/01/19 10:32:56;;;;;;;18.27;14.80;;;3.70;99.90;;;;;;5055247;28;20811;-59
2022/01/19 10:35:29;;;;;;;19.40;15.23;;;3.70;99.90;;;;;;5056618;28;20950;-59
2022/01/19 10:38:11;;;;;;;19.87;15.63;;;3.70;99.90;;;;;;5053700;28;20467;-56
2022/01/19 10:40:40;;;;;;;20.53;16.80;;;3.70;99.90;;;;;;5053466;28;20527;-54
2022/01/19 10:43:28;;;;;;;18.47;16.00;;;3.80;99.90;;;;;;5055617;28;20458;-57
2022/01/19 10:46:03;;;;;;;18.60;15.70;;;3.80;99.90;;;;;;5053670;28;20458;-53
2022/01/19 10:48:37;;;;;;;20.13;15.27;;;3.90;99.90;;;;;;5055959;28;20895;-58
2022/01/19 10:51:09;;;;;;;20.53;16.60;;;3.80;99.90;;;;;;5056806;28;20851;-59
2022/01/19 10:53:39;;;;;;;17.33;14.10;;;3.80;99.90;;;;;;5056005;28;20472;-56
2022/01/19 10:56:08;;;;;;;19.03;16.10;;;3.90;99.90;;;;;;5056640;28;20437;-58
2022/01/19 10:58:54;;;;;;;20.60;17.07;;;3.90;99.90;;;;;;5056298;28;20471;-56
2022/01/19 11:01:37;;;;;;;20.47;16.03;;;3.80;99.90;;;;;;5055542;28;20511;-57
2022/01/19 11:04:28;;;;;;;19.97;16.30;;;3.90;99.90;;;;;;5051516;28;20433;-55
2022/01/19 11:06:59;;;;;;;19.03;15.97;;;3.80;99.90;;;;;;5043207;28;20528;-59
2022/01/19 11:09:45;;;;;;;21.53;17.63;;;3.90;99.90;;;;;;5056440;28;20508;-58
2022/01/19 11:12:14;;;;;;;18.53;15.67;;;3.90;99.90;;;;;;5056545;28;20464;-60
2022/01/19 11:14:42;;;;;;;19.70;15.20;;;3.90;99.90;;;;;;5055741;28;20905;-57
2022/01/19 11:17:11;;;;;;;18.03;15.13;;;3.90;99.90;;;;;;5055468;28;20493;-58
2022/01/19 11:19:39;;;;;;;17.67;15.50;;;3.90;99.90;;;;;;5055917;28;20811;-58
2022/01/19 11:22:37;;;;;;;20.10;16.00;;;3.90;99.90;;;;;;5056461;28;20458;-60
2022/01/19 11:25:11;;;;;;;20.80;15.60;;;3.80;99.90;;;;;;5055866;28;20466;-56
2022/01/19 11:27:40;;;;;;;19.70;15.70;;;3.90;99.90;;;;;;5055721;28;20517;-58
2022/01/19 11:30:17;;;;;;;16.10;14.20;;;3.90;99.90;;;;;;5056102;28;20520;-57
2022/01/19 11:32:45;;;;;;;18.20;14.53;;;4.00;99.90;;;;;;5055764;28;20517;-59
2022/01/19 11:35:36;;;;;;;16.70;14.60;;;3.90;99.90;;;;;;5055797;28;20466;-59
2022/01/19 11:38:26;;;;;;;16.00;14.00;;;4.00;99.90;;;;;;5055104;28;20466;-56
2022/01/19 11:40:55;;;;;;;17.33;14.63;;;4.00;99.90;;;;;;5057342;28;20899;-56
2022/01/19 11:43:25;;;;;;;17.57;15.30;;;4.10;99.90;;;;;;5059623;28;20458;-57
2022/01/19 11:45:54;;;;;;;15.97;13.60;;;4.20;99.90;;;;;;5059628;28;20515;-60
2022/01/19 11:48:25;;;;;;;16.13;14.43;;;4.10;99.90;;;;;;5058819;28;20462;-60
2022/01/19 11:50:56;;;;;;;19.77;15.90;;;4.10;99.90;;;;;;5052288;28;20511;-56
2022/01/19 11:53:26;;;;;;;18.23;16.23;;;4.10;99.90;;;;;;5059138;28;20509;-60
2022/01/19 11:56:08;;;;;;;17.23;15.07;;;4.10;99.90;;;;;;5059673;28;20493;-58
2022/01/19 11:58:35;;;;;;;17.73;15.87;;;4.00;95.50;;;;;;5058651;28;20470;-59
2022/01/19 12:01:04;;;;;;;16.37;13.80;;;4.00;99.90;;;;;;5050036;28;20899;-58
2022/01/19 12:03:41;;;;;;;16.70;14.87;;;4.00;99.90;;;;;;5058923;28;20474;-57
2022/01/19 12:06:08;;;;;;;17.60;14.17;;;4.00;99.90;;;;;;5059744;28;20466;-58
2022/01/19 12:08:38;;;;;;;19.27;16.03;;;4.10;99.90;;;;;;5066391;28;20445;-58
2022/01/19 12:11:18;;;;;;;19.23;15.30;;;4.10;99.90;;;;;;5058803;28;20441;-57
2022/01/19 12:16:53;;;;;;;18.20;15.17;;;4.10;99.80;;;;;;5058813;28;20434;-58
2022/01/19 12:19:23;;;;;;;29.13;20.80;;;4.00;99.90;;;;;;5057666;28;20513;-57
2022/01/19 12:21:55;;;;;;;41.40;23.63;;;4.00;99.40;;;;;;5058123;28;20439;-59
2022/01/19 12:24:26;;;;;;;24.77;17.10;;;4.10;99.90;;;;;;5062793;28;20454;-57
2022/01/19 12:27:07;;;;;;;17.83;14.50;;;4.10;90.80;;;;;;5062569;28;20454;-59
2022/01/19 12:29:40;;;;;;;18.33;16.03;;;4.10;87.30;;;;;;5062554;28;20919;-59
2022/01/19 12:32:24;;;;;;;19.10;16.60;;;4.10;78.50;;;;;;5063152;28;20552;-59
2022/01/19 12:34:59;;;;;;;18.30;15.33;;;4.10;70.50;;;;;;5062322;28;20565;-57
2022/01/19 12:37:40;;;;;;;20.70;16.60;;;4.00;64.40;;;;;;5063721;28;20753;-58
2022/01/19 12:40:47;;;;;;;19.50;16.30;;;4.00;76.70;;;;;;5060636;28;20846;-59
2022/01/19 12:43:36;;;;;;;23.23;16.10;;;4.10;76.00;;;;;;5053565;28;20448;-59
2022/01/19 12:46:06;;;;;;;20.73;17.53;;;4.00;83.10;;;;;;5065531;28;20454;-60
2022/01/19 12:48:41;;;;;;;26.27;17.50;;;4.00;92.50;;;;;;5062896;28;20490;-58
2022/01/19 12:51:40;;;;;;;21.67;16.73;;;4.10;91.60;;;;;;5062965;28;20494;-58
2022/01/19 12:54:11;;;;;;;19.23;15.90;;;4.10;86.90;;;;;;5061974;28;20497;-58
2022/01/19 12:56:38;;;;;;;31.23;18.40;;;4.10;70.70;;;;;;5061303;28;20459;-58
2022/01/19 12:59:16;;;;;;;28.63;17.70;;;4.10;79.60;;;;;;5056610;28;20458;-59
2022/01/19 13:01:44;;;;;;;21.40;15.30;;;4.10;69.60;;;;;;5055195;28;20476;-59
2022/01/19 13:04:22;;;;;;;19.13;16.03;;;4.10;47.10;;;;;;5055558;28;20496;-58
2022/01/19 13:06:54;;;;;;;20.93;16.70;;;4.10;42.10;;;;;;5056463;28;20466;-57
2022/01/19 13:09:27;;;;;;;23.50;17.00;;;4.10;32.60;;;;;;5056511;28;20925;-58
2022/01/19 13:11:55;;;;;;;29.00;17.07;;;4.00;30.60;;;;;;5056619;28;20462;-58
2022/01/19 13:14:29;;;;;;;22.33;16.47;;;4.00;44.10;;;;;;5057949;28;20494;-58
2022/01/19 13:16:56;;;;;;;20.10;16.47;;;4.00;47.20;;;;;;5056707;28;20513;-57
2022/01/19 13:19:28;;;;;;;24.03;17.30;;;4.00;54.50;;;;;;5057375;28;20563;-58
2022/01/19 13:22:01;;;;;;;20.83;17.23;;;4.00;52.70;;;;;;5055828;28;20466;-58
2022/01/19 13:24:31;;;;;;;20.60;16.83;;;4.00;52.40;;;;;;5056783;28;20458;-58
2022/01/19 13:27:04;;;;;;;27.30;18.90;;;4.00;48.00;;;;;;5057733;28;20516;-58
2022/01/19 13:29:36;;;;;;;24.87;17.90;;;4.00;48.90;;;;;;5057238;28;20463;-57
2022/01/19 13:32:10;;;;;;;21.10;18.73;;;3.90;46.00;;;;;;5065179;28;20437;-59
2022/01/19 13:34:52;;;;;;;21.17;17.40;;;4.00;46.80;;;;;;5056830;28;20954;-58
2022/01/19 13:37:20;;;;;;;23.47;19.07;;;3.90;48.80;;;;;;5055866;28;20471;-57
2022/01/19 13:39:59;;;;;;;25.97;17.80;;;3.90;76.00;;;;;;5056889;28;20516;-58
2022/01/19 13:42:44;;;;;;;24.93;19.13;;;4.00;58.80;;;;;;5056891;28;20469;-57
2022/01/19 13:45:29;;;;;;;23.00;17.00;;;3.90;51.80;;;;;;5056670;28;20454;-57
2022/01/19 13:48:20;;;;;;;24.47;17.30;;;4.00;41.20;;;;;;5057007;28;20520;-59
2022/01/19 13:50:52;;;;;;;21.70;17.73;;;4.00;40.90;;;;;;5056026;28;20441;-61
2022/01/19 13:53:28;;;;;;;27.53;18.33;;;3.90;40.30;;;;;;5056740;28;20470;-59
2022/01/19 13:56:00;;;;;;;19.10;15.77;;;4.00;47.40;;;;;;5057272;28;20934;-58
2022/01/19 13:58:32;;;;;;;20.47;17.03;;;3.90;51.10;;;;;;5057489;28;20472;-57
2022/01/19 14:01:04;;;;;;;21.43;16.50;;;3.90;47.30;;;;;;5056864;28;20516;-56
2022/01/19 14:03:52;;;;;;;20.40;16.93;;;3.90;48.10;;;;;;5056123;28;20445;-56
2022/01/19 14:06:27;;;;;;;20.90;17.33;;;3.90;39.20;;;;;;5057115;28;20475;-58
2022/01/19 14:09:10;;;;;;;24.40;18.13;;;4.00;48.60;;;;;;5057186;28;20519;-58
2022/01/19 14:11:41;;;;;;;19.47;16.57;;;4.00;64.80;;;;;;5056877;28;20523;-58
2022/01/19 14:14:09;;;;;;;23.33;16.37;;;4.00;60.40;;;;;;5056481;28;20494;-59
2022/01/19 14:16:45;;;;;;;23.20;16.97;;;3.90;75.50;;;;;;5056426;28;20478;-57
2022/01/19 14:19:15;;;;;;;21.40;17.30;;;4.00;98.70;;;;;;5056612;28;20482;-58
2022/01/19 14:21:56;;;;;;;23.63;18.10;;;3.90;99.90;;;;;;5057161;28;20820;-58
2022/01/19 14:24:25;;;;;;;22.40;17.40;;;3.90;99.90;;;;;;5057233;28;20504;-57
2022/01/19 14:26:55;;;;;;;24.50;19.07;;;3.90;99.90;;;;;;5056030;28;20462;-58